METAR UND TAF INFORMATION
LJLJ 262100Z 36004KT 9999 FEW033 SCT050 BKN100 13/10 Q1008 NOSIG

 FLUGHAFENKARTE

 RUNWAY INFORMATION
Runway 13 Runway length 10827 ft Runway width 148 ft
Runway elevation 1273 ft Runway displaced threshold 0 ft Runway heading 126
Runway 31 Runway length 10827 ft Runway width 148 ft
Runway elevation 1191 ft Runway displaced threshold 0 ft Runway heading 306

 AIRPORT FREQUENCIES
Type A/D Name APP Frequency 135.275 MHZ
Type ATIS Name also on VO Frequency 128.175 MHZ
Type GND Name Frequency 121.625 MHZ
Type HANDLING & Name Frequency 131.4 MHZ
Type TWR Name TWR Frequency 118 MHZ

 AIRPORT NEAR NAVIGATION AIDS
Type VOR-DME Name Dolsko Frequency 112700 KHZ
Type NDB Name Dolsko Frequency 328 KHZ
Type NDB Name Ljubljana Frequency 296 KHZ